sensor_id;sensor_type;location;lat;lon;timestamp;pressure;altitude;pressure_sealevel;temperature;humidity
39105;BME280;46464;51.154;13.812;2023-01-28T00:01:13;100093.66;;;-0.69;100.00
39105;BME280;46464;51.154;13.812;2023-01-28T00:03:40;100091.88;;;-0.67;100.00
39105;BME280;46464;51.154;13.812;2023-01-28T00:06:08;100099.84;;;-0.62;100.00
39105;BME280;46464;51.154;13.812;2023-01-28T00:08:35;100091.88;;;-0.67;100.00
39105;BME280;46464;51.154;13.812;2023-01-28T00:11:02;100092.81;;;-0.63;100.00
39105;BME280;46464;51.154;13.812;2023-01-28T00:13:30;100090.09;;;-0.71;100.00
39105;BME280;46464;51.154;13.812;2023-01-28T00:15:57;100097.16;;;-0.67;100.00
39105;BME280;46464;51.154;13.812;2023-01-28T00:18:24;100099.84;;;-0.66;100.00
39105;BME280;46464;51.154;13.812;2023-01-28T00:21:01;100100.66;;;-0.73;100.00
39105;BME280;46464;51.154;13.812;2023-01-28T00:23:28;100100.59;;;-0.76;100.00
39105;BME280;46464;51.154;13.812;2023-01-28T00:25:58;100099.72;;;-0.76;100.00
39105;BME280;46464;51.154;13.812;2023-01-28T00:28:25;100097.09;;;-0.76;100.00
39105;BME280;46464;51.154;13.812;2023-01-28T00:30:51;100101.50;;;-0.72;100.00
39105;BME280;46464;51.154;13.812;2023-01-28T00:33:18;100098.94;;;-0.66;100.00
39105;BME280;46464;51.154;13.812;2023-01-28T00:35:44;100093.59;;;-0.72;100.00
39105;BME280;46464;51.154;13.812;2023-01-28T00:38:11;100107.66;;;-0.73;100.00
39105;BME280;46464;51.154;13.812;2023-01-28T00:40:38;100099.72;;;-0.75;100.00
39105;BME280;46464;51.154;13.812;2023-01-28T00:43:04;100102.38;;;-0.73;100.00
39105;BME280;46464;51.154;13.812;2023-01-28T00:45:30;100104.13;;;-0.74;100.00
39105;BME280;46464;51.154;13.812;2023-01-28T00:47:57;100099.78;;;-0.72;100.00
39105;BME280;46464;51.154;13.812;2023-01-28T00:50:23;100104.13;;;-0.74;100.00
39105;BME280;46464;51.154;13.812;2023-01-28T00:52:50;100105.00;;;-0.75;100.00
39105;BME280;46464;51.154;13.812;2023-01-28T00:55:16;100107.69;;;-0.72;100.00
39105;BME280;46464;51.154;13.812;2023-01-28T00:57:43;100111.19;;;-0.73;100.00
39105;BME280;46464;51.154;13.812;2023-01-28T01:00:09;100107.63;;;-0.78;100.00
39105;BME280;46464;51.154;13.812;2023-01-28T01:02:36;100107.63;;;-0.76;100.00
39105;BME280;46464;51.154;13.812;2023-01-28T01:05:04;100107.69;;;-0.70;100.00
39105;BME280;46464;51.154;13.812;2023-01-28T01:07:30;100112.97;;;-0.70;100.00
39105;BME280;46464;51.154;13.812;2023-01-28T01:10:00;100110.34;;;-0.70;100.00
39105;BME280;46464;51.154;13.812;2023-01-28T01:12:27;100109.41;;;-0.74;100.00
39105;BME280;46464;51.154;13.812;2023-01-28T01:14:54;100116.53;;;-0.65;100.00
39105;BME280;46464;51.154;13.812;2023-01-28T01:17:20;100101.56;;;-0.66;100.00
39105;BME280;46464;51.154;13.812;2023-01-28T01:19:47;100103.28;;;-0.73;100.00
39105;BME280;46464;51.154;13.812;2023-01-28T01:22:13;100105.91;;;-0.74;100.00
39105;BME280;46464;51.154;13.812;2023-01-28T01:24:40;100107.63;;;-0.76;100.00
39105;BME280;46464;51.154;13.812;2023-01-28T01:27:06;100101.44;;;-0.80;100.00
39105;BME280;46464;51.154;13.812;2023-01-28T01:29:32;100108.50;;;-0.76;100.00
39105;BME280;46464;51.154;13.812;2023-01-28T01:31:59;100117.34;;;-0.74;100.00
39105;BME280;46464;51.154;13.812;2023-01-28T01:34:25;100110.28;;;-0.73;100.00
39105;BME280;46464;51.154;13.812;2023-01-28T01:36:52;100112.91;;;-0.78;100.00
39105;BME280;46464;51.154;13.812;2023-01-28T01:39:18;100112.00;;;-0.80;100.00
39105;BME280;46464;51.154;13.812;2023-01-28T01:41:45;100114.63;;;-0.78;100.00
39105;BME280;46464;51.154;13.812;2023-01-28T01:46:56;100113.72;;;-0.82;100.00
39105;BME280;46464;51.154;13.812;2023-01-28T01:49:26;100117.28;;;-0.78;100.00
39105;BME280;46464;51.154;13.812;2023-01-28T01:51:55;100116.41;;;-0.80;100.00
39105;BME280;46464;51.154;13.812;2023-01-28T01:54:23;100115.53;;;-0.78;100.00
39105;BME280;46464;51.154;13.812;2023-01-28T01:56:51;100119.00;;;-0.84;100.00
39105;BME280;46464;51.154;13.812;2023-01-28T01:59:20;100112.78;;;-0.86;100.00
39105;BME280;46464;51.154;13.812;2023-01-28T02:01:47;100114.69;;;-0.74;100.00
39105;BME280;46464;51.154;13.812;2023-01-28T02:04:16;100111.97;;;-0.82;100.00
39105;BME280;46464;51.154;13.812;2023-01-28T02:06:43;100109.38;;;-0.78;100.00
39105;BME280;46464;51.154;13.812;2023-01-28T02:09:23;100106.75;;;-0.77;100.00
39105;BME280;46464;51.154;13.812;2023-01-28T02:11:51;100111.13;;;-0.80;100.00
39105;BME280;46464;51.154;13.812;2023-01-28T02:14:18;100109.41;;;-0.75;100.00
39105;BME280;46464;51.154;13.812;2023-01-28T02:16:56;100104.13;;;-0.75;100.00
39105;BME280;46464;51.154;13.812;2023-01-28T02:19:24;100106.75;;;-0.77;100.00
39105;BME280;46464;51.154;13.812;2023-01-28T02:22:05;100101.50;;;-0.74;100.00
39105;BME280;46464;51.154;13.812;2023-01-28T02:27:18;100103.28;;;-0.70;100.00
39105;BME280;46464;51.154;13.812;2023-01-28T02:29:55;100104.13;;;-0.77;100.00
39105;BME280;46464;51.154;13.812;2023-01-28T02:32:29;100112.97;;;-0.70;100.00
39105;BME280;46464;51.154;13.812;2023-01-28T02:35:00;100112.84;;;-0.84;100.00
39105;BME280;46464;51.154;13.812;2023-01-28T02:40:22;100113.69;;;-0.87;100.00
39105;BME280;46464;51.154;13.812;2023-01-28T02:42:50;100125.09;;;-0.88;100.00
39105;BME280;46464;51.154;13.812;2023-01-28T02:45:21;100123.28;;;-0.92;100.00
39105;BME280;46464;51.154;13.812;2023-01-28T02:47:48;100122.41;;;-0.92;100.00
39105;BME280;46464;51.154;13.812;2023-01-28T02:50:30;100127.69;;;-0.94;100.00
39105;BME280;46464;51.154;13.812;2023-01-28T02:53:06;100125.91;;;-0.93;100.00
39105;BME280;46464;51.154;13.812;2023-01-28T03:01:25;100134.69;;;-0.94;100.00
39105;BME280;46464;51.154;13.812;2023-01-28T03:03:58;100136.44;;;-0.95;100.00
39105;BME280;46464;51.154;13.812;2023-01-28T03:06:32;100133.81;;;-0.96;100.00
39105;BME280;46464;51.154;13.812;2023-01-28T03:09:02;100133.88;;;-0.90;100.00
39105;BME280;46464;51.154;13.812;2023-01-28T03:11:49;100134.75;;;-0.90;100.00
39105;BME280;46464;51.154;13.812;2023-01-28T03:14:36;100122.34;;;-0.99;100.00
39105;BME280;46464;51.154;13.812;2023-01-28T03:17:36;100126.75;;;-0.99;100.00
39105;BME280;46464;51.154;13.812;2023-01-28T03:20:24;100135.53;;;-0.99;100.00
39105;BME280;46464;51.154;13.812;2023-01-28T03:23:11;100135.44;;;-1.08;100.00
39105;BME280;46464;51.154;13.812;2023-01-28T03:25:58;100137.16;;;-1.08;100.00
39105;BME280;46464;51.154;13.812;2023-01-28T03:28:45;100138.09;;;-1.03;100.00
39105;BME280;46464;51.154;13.812;2023-01-28T03:31:31;100139.84;;;-1.05;100.00
39105;BME280;46464;51.154;13.812;2023-01-28T03:34:18;100146.78;;;-1.10;100.00
39105;BME280;46464;51.154;13.812;2023-01-28T03:37:05;100145.84;;;-1.19;100.00
39105;BME280;46464;51.154;13.812;2023-01-28T03:39:32;100152.00;;;-1.17;100.00
39105;BME280;46464;51.154;13.812;2023-01-28T03:41:59;100152.81;;;-1.24;100.00
39105;BME280;46464;51.154;13.812;2023-01-28T03:44:28;100154.63;;;-1.17;100.00
39105;BME280;46464;51.154;13.812;2023-01-28T03:47:13;100151.94;;;-1.21;100.00
39105;BME280;46464;51.154;13.812;2023-01-28T03:49:40;100160.81;;;-1.13;100.00
39105;BME280;46464;51.154;13.812;2023-01-28T03:52:07;100164.19;;;-1.26;100.00
39105;BME280;46464;51.154;13.812;2023-01-28T03:54:33;100170.25;;;-1.31;100.00
39105;BME280;46464;51.154;13.812;2023-01-28T03:57:00;100171.88;;;-1.40;100.00
39105;BME280;46464;51.154;13.812;2023-01-28T03:59:27;100171.94;;;-1.39;100.00
39105;BME280;46464;51.154;13.812;2023-01-28T04:01:53;100178.00;;;-1.43;100.00
39105;BME280;46464;51.154;13.812;2023-01-28T04:04:20;100176.97;;;-1.53;100.00
39105;BME280;46464;51.154;13.812;2023-01-28T04:06:51;100182.22;;;-1.56;100.00
39105;BME280;46464;51.154;13.812;2023-01-28T04:09:17;100177.78;;;-1.58;100.00
39105;BME280;46464;51.154;13.812;2023-01-28T04:11:44;100183.06;;;-1.58;100.00
39105;BME280;46464;51.154;13.812;2023-01-28T04:14:10;100182.09;;;-1.64;100.00
39105;BME280;46464;51.154;13.812;2023-01-28T04:16:37;100184.75;;;-1.64;100.00
39105;BME280;46464;51.154;13.812;2023-01-28T04:19:03;100183.72;;;-1.73;100.00
39105;BME280;46464;51.154;13.812;2023-01-28T04:21:30;100189.72;;;-1.82;100.00
39105;BME280;46464;51.154;13.812;2023-01-28T04:23:56;100189.78;;;-1.77;100.00
39105;BME280;46464;51.154;13.812;2023-01-28T04:26:22;100191.56;;;-1.76;100.00
39105;BME280;46464;51.154;13.812;2023-01-28T04:28:49;100191.53;;;-1.78;100.00
39105;BME280;46464;51.154;13.812;2023-01-28T04:31:15;100195.75;;;-1.88;100.00
39105;BME280;46464;51.154;13.812;2023-01-28T04:33:42;100196.59;;;-1.92;100.00
39105;BME280;46464;51.154;13.812;2023-01-28T04:36:08;100201.66;;;-2.03;100.00
39105;BME280;46464;51.154;13.812;2023-01-28T04:38:35;100199.03;;;-2.01;100.00
39105;BME280;46464;51.154;13.812;2023-01-28T04:41:01;100194.59;;;-2.05;100.00
39105;BME280;46464;51.154;13.812;2023-01-28T04:43:28;100194.63;;;-2.04;100.00
39105;BME280;46464;51.154;13.812;2023-01-28T04:45:54;100199.75;;;-2.12;100.00
39105;BME280;46464;51.154;13.812;2023-01-28T04:48:21;100196.19;;;-2.14;100.00
39105;BME280;46464;51.154;13.812;2023-01-28T04:50:47;100198.03;;;-2.09;100.00
39105;BME280;46464;51.154;13.812;2023-01-28T04:53:14;100201.56;;;-2.09;100.00
39105;BME280;46464;51.154;13.812;2023-01-28T04:55:40;100205.03;;;-2.10;100.00
39105;BME280;46464;51.154;13.812;2023-01-28T04:58:06;100206.88;;;-2.06;100.00
39105;BME280;46464;51.154;13.812;2023-01-28T05:00:33;100207.78;;;-2.02;100.00
39105;BME280;46464;51.154;13.812;2023-01-28T05:02:59;100208.78;;;-1.97;100.00
39105;BME280;46464;51.154;13.812;2023-01-28T05:05:26;100212.09;;;-2.07;100.00
39105;BME280;46464;51.154;13.812;2023-01-28T05:07:55;100214.50;;;-2.20;100.00
39105;BME280;46464;51.154;13.812;2023-01-28T05:10:21;100227.44;;;-2.32;100.00
39105;BME280;46464;51.154;13.812;2023-01-28T05:12:48;100222.81;;;-2.46;100.00
39105;BME280;46464;51.154;13.812;2023-01-28T05:15:15;100226.38;;;-2.44;100.00
39105;BME280;46464;51.154;13.812;2023-01-28T05:17:42;100221.00;;;-2.48;100.00
39105;BME280;46464;51.154;13.812;2023-01-28T05:20:10;100229.84;;;-2.45;100.00
39105;BME280;46464;51.154;13.812;2023-01-28T05:22:36;100229.72;;;-2.51;100.00
39105;BME280;46464;51.154;13.812;2023-01-28T05:25:03;100228.00;;;-2.50;100.00
39105;BME280;46464;51.154;13.812;2023-01-28T05:27:30;100227.94;;;-2.52;100.00
39105;BME280;46464;51.154;13.812;2023-01-28T05:29:56;100233.22;;;-2.52;100.00
39105;BME280;46464;51.154;13.812;2023-01-28T05:32:22;100234.28;;;-2.42;100.00
39105;BME280;46464;51.154;13.812;2023-01-28T05:34:49;100230.78;;;-2.42;100.00
39105;BME280;46464;51.154;13.812;2023-01-28T05:37:15;100237.75;;;-2.45;100.00
39105;BME280;46464;51.154;13.812;2023-01-28T05:39:42;100241.31;;;-2.42;100.00
39105;BME280;46464;51.154;13.812;2023-01-28T05:42:08;100249.19;;;-2.42;100.00
39105;BME280;46464;51.154;13.812;2023-01-28T05:44:34;100247.38;;;-2.45;100.00
39105;BME280;46464;51.154;13.812;2023-01-28T05:47:03;100257.91;;;-2.47;100.00
39105;BME280;46464;51.154;13.812;2023-01-28T05:49:29;100258.72;;;-2.49;100.00
39105;BME280;46464;51.154;13.812;2023-01-28T05:51:56;100259.50;;;-2.53;100.00
39105;BME280;46464;51.154;13.812;2023-01-28T05:54:22;100261.97;;;-2.63;100.00
39105;BME280;46464;51.154;13.812;2023-01-28T05:56:49;100261.97;;;-2.61;100.00
39105;BME280;46464;51.154;13.812;2023-01-28T05:59:15;100256.66;;;-2.64;100.00
39105;BME280;46464;51.154;13.812;2023-01-28T06:01:42;100259.91;;;-2.76;100.00
39105;BME280;46464;51.154;13.812;2023-01-28T06:04:08;100260.97;;;-2.68;100.00
39105;BME280;46464;51.154;13.812;2023-01-28T06:06:34;100262.66;;;-2.71;100.00
39105;BME280;46464;51.154;13.812;2023-01-28T06:09:01;100267.91;;;-2.71;100.00
39105;BME280;46464;51.154;13.812;2023-01-28T06:11:27;100272.25;;;-2.73;100.00
39105;BME280;46464;51.154;13.812;2023-01-28T06:13:54;100266.88;;;-2.78;100.00
39105;BME280;46464;51.154;13.812;2023-01-28T06:16:20;100283.44;;;-2.84;100.00
39105;BME280;46464;51.154;13.812;2023-01-28T06:18:46;100286.91;;;-2.85;100.00
39105;BME280;46464;51.154;13.812;2023-01-28T06:21:13;100290.59;;;-2.77;100.00
39105;BME280;46464;51.154;13.812;2023-01-28T06:23:39;100292.34;;;-2.76;100.00
39105;BME280;46464;51.154;13.812;2023-01-28T06:26:05;100296.75;;;-2.76;100.00
39105;BME280;46464;51.154;13.812;2023-01-28T06:28:32;100304.66;;;-2.74;100.00
39105;BME280;46464;51.154;13.812;2023-01-28T06:30:58;100303.66;;;-2.81;100.00
39105;BME280;46464;51.154;13.812;2023-01-28T06:33:25;100309.75;;;-2.82;100.00
39105;BME280;46464;51.154;13.812;2023-01-28T06:35:52;100308.91;;;-2.81;100.00
39105;BME280;46464;51.154;13.812;2023-01-28T06:38:18;100315.16;;;-2.76;100.00
39105;BME280;46464;51.154;13.812;2023-01-28T06:40:49;100309.91;;;-2.74;100.00
39105;BME280;46464;51.154;13.812;2023-01-28T06:43:16;100319.59;;;-2.72;100.00
39105;BME280;46464;51.154;13.812;2023-01-28T06:45:42;100319.53;;;-2.77;100.00
39105;BME280;46464;51.154;13.812;2023-01-28T06:48:08;100318.66;;;-2.76;100.00
39105;BME280;46464;51.154;13.812;2023-01-28T06:50:35;100324.72;;;-2.78;100.00
39105;BME280;46464;51.154;13.812;2023-01-28T06:53:01;100329.16;;;-2.76;100.00
39105;BME280;46464;51.154;13.812;2023-01-28T06:55:28;100328.03;;;-2.88;100.00
39105;BME280;46464;51.154;13.812;2023-01-28T06:57:54;100328.97;;;-2.85;100.00
39105;BME280;46464;51.154;13.812;2023-01-28T07:00:20;100329.81;;;-2.87;100.00
39105;BME280;46464;51.154;13.812;2023-01-28T07:02:47;100343.78;;;-2.88;100.00
39105;BME280;46464;51.154;13.812;2023-01-28T07:05:13;100339.34;;;-2.93;100.00
39105;BME280;46464;51.154;13.812;2023-01-28T07:07:40;100342.00;;;-2.91;99.56
39105;BME280;46464;51.154;13.812;2023-01-28T07:10:07;100345.59;;;-2.86;99.12
39105;BME280;46464;51.154;13.812;2023-01-28T07:12:34;100335.06;;;-2.87;100.00
39105;BME280;46464;51.154;13.812;2023-01-28T07:15:00;100338.59;;;-2.85;100.00
39105;BME280;46464;51.154;13.812;2023-01-28T07:17:27;100337.69;;;-2.87;100.00
39105;BME280;46464;51.154;13.812;2023-01-28T07:19:53;100336.84;;;-2.86;100.00
39105;BME280;46464;51.154;13.812;2023-01-28T07:22:19;100344.75;;;-2.85;100.00
39105;BME280;46464;51.154;13.812;2023-01-28T07:24:46;100342.25;;;-2.80;100.00
39105;BME280;46464;51.154;13.812;2023-01-28T07:27:12;100340.38;;;-2.84;100.00
39105;BME280;46464;51.154;13.812;2023-01-28T07:29:39;100342.09;;;-2.86;100.00
39105;BME280;46464;51.154;13.812;2023-01-28T07:32:05;100346.56;;;-2.82;100.00
39105;BME280;46464;51.154;13.812;2023-01-28T07:34:32;100342.25;;;-2.80;100.00
39105;BME280;46464;51.154;13.812;2023-01-28T07:36:59;100346.72;;;-2.74;100.00
39105;BME280;46464;51.154;13.812;2023-01-28T07:39:25;100351.16;;;-2.73;100.00
39105;BME280;46464;51.154;13.812;2023-01-28T07:41:51;100342.41;;;-2.72;100.00
39105;BME280;46464;51.154;13.812;2023-01-28T07:44:18;100350.22;;;-2.76;100.00
39105;BME280;46464;51.154;13.812;2023-01-28T07:46:44;100344.72;;;-2.86;99.29
39105;BME280;46464;51.154;13.812;2023-01-28T07:49:11;100346.53;;;-2.84;99.54
39105;BME280;46464;51.154;13.812;2023-01-28T07:51:37;100345.69;;;-2.83;99.67
39105;BME280;46464;51.154;13.812;2023-01-28T07:54:04;100350.06;;;-2.82;99.63
39105;BME280;46464;51.154;13.812;2023-01-28T07:56:30;100345.00;;;-2.74;100.00
39105;BME280;46464;51.154;13.812;2023-01-28T07:58:57;100349.38;;;-2.73;100.00
39105;BME280;46464;51.154;13.812;2023-01-28T08:01:23;100345.16;;;-2.66;100.00
39105;BME280;46464;51.154;13.812;2023-01-28T08:03:50;100344.34;;;-2.64;100.00
39105;BME280;46464;51.154;13.812;2023-01-28T08:06:17;100345.22;;;-2.63;100.00
39105;BME280;46464;51.154;13.812;2023-01-28T08:08:43;100350.47;;;-2.65;100.00
39105;BME280;46464;51.154;13.812;2023-01-28T08:11:09;100355.75;;;-2.63;100.00
39105;BME280;46464;51.154;13.812;2023-01-28T08:13:36;100346.09;;;-2.64;100.00
39105;BME280;46464;51.154;13.812;2023-01-28T08:16:03;100353.13;;;-2.63;100.00
39105;BME280;46464;51.154;13.812;2023-01-28T08:18:29;100351.44;;;-2.60;100.00
39105;BME280;46464;51.154;13.812;2023-01-28T08:20:56;100359.34;;;-2.58;100.00
39105;BME280;46464;51.154;13.812;2023-01-28T08:23:23;100354.06;;;-2.61;100.00
39105;BME280;46464;51.154;13.812;2023-01-28T08:25:52;100342.66;;;-2.62;100.00
39105;BME280;46464;51.154;13.812;2023-01-28T08:28:19;100348.91;;;-2.55;100.00
39105;BME280;46464;51.154;13.812;2023-01-28T08:30:46;100356.81;;;-2.55;100.00
39105;BME280;46464;51.154;13.812;2023-01-28T08:33:15;100358.56;;;-2.55;100.00
39105;BME280;46464;51.154;13.812;2023-01-28T08:35:42;100356.94;;;-2.49;100.00
39105;BME280;46464;51.154;13.812;2023-01-28T08:38:09;100360.44;;;-2.48;100.00
39105;BME280;46464;51.154;13.812;2023-01-28T08:40:36;100368.28;;;-2.51;100.00
39105;BME280;46464;51.154;13.812;2023-01-28T08:43:03;100373.69;;;-2.45;100.00
39105;BME280;46464;51.154;13.812;2023-01-28T08:45:29;100364.88;;;-2.47;100.00
39105;BME280;46464;51.154;13.812;2023-01-28T08:47:58;100370.47;;;-2.32;98.39
39105;BME280;46464;51.154;13.812;2023-01-28T08:50:25;100364.28;;;-2.34;97.55
39105;BME280;46464;51.154;13.812;2023-01-28T08:52:55;100368.47;;;-2.42;96.92
39105;BME280;46464;51.154;13.812;2023-01-28T08:55:22;100376.31;;;-2.45;97.20
39105;BME280;46464;51.154;13.812;2023-01-28T08:57:49;100371.81;;;-2.51;98.14
39105;BME280;46464;51.154;13.812;2023-01-28T09:00:15;100372.72;;;-2.50;98.40
39105;BME280;46464;51.154;13.812;2023-01-28T09:02:42;100371.16;;;-2.40;98.20
39105;BME280;46464;51.154;13.812;2023-01-28T09:05:09;100379.97;;;-2.38;98.26
39105;BME280;46464;51.154;13.812;2023-01-28T09:07:36;100382.59;;;-2.38;98.94
39105;BME280;46464;51.154;13.812;2023-01-28T09:10:03;100388.69;;;-2.41;95.17
39105;BME280;46464;51.154;13.812;2023-01-28T09:12:30;100393.88;;;-2.44;95.40
39105;BME280;46464;51.154;13.812;2023-01-28T09:14:56;100396.53;;;-2.42;95.29
39105;BME280;46464;51.154;13.812;2023-01-28T09:17:23;100395.63;;;-2.45;94.49
39105;BME280;46464;51.154;13.812;2023-01-28T09:19:49;100395.59;;;-2.46;92.10
39105;BME280;46464;51.154;13.812;2023-01-28T09:22:16;100393.91;;;-2.42;91.50
39105;BME280;46464;51.154;13.812;2023-01-28T09:24:43;100395.69;;;-2.43;92.52
39105;BME280;46464;51.154;13.812;2023-01-28T09:27:09;100403.66;;;-2.38;92.31
39105;BME280;46464;51.154;13.812;2023-01-28T09:29:35;100405.19;;;-2.48;92.75
39105;BME280;46464;51.154;13.812;2023-01-28T09:32:03;100408.84;;;-2.43;93.55
39105;BME280;46464;51.154;13.812;2023-01-28T09:34:30;100404.59;;;-2.35;92.53
39105;BME280;46464;51.154;13.812;2023-01-28T09:36:56;100406.19;;;-2.43;91.78
39105;BME280;46464;51.154;13.812;2023-01-28T09:39:23;100400.03;;;-2.44;91.46
39105;BME280;46464;51.154;13.812;2023-01-28T09:44:45;100401.84;;;-2.39;90.41
39105;BME280;46464;51.154;13.812;2023-01-28T09:47:20;100406.13;;;-2.46;91.94
39105;BME280;46464;51.154;13.812;2023-01-28T09:49:48;100404.41;;;-2.44;92.03
39105;BME280;46464;51.154;13.812;2023-01-28T09:52:17;100413.22;;;-2.42;91.02
39105;BME280;46464;51.154;13.812;2023-01-28T09:54:48;100414.16;;;-2.40;89.72
39105;BME280;46464;51.154;13.812;2023-01-28T09:57:18;100410.44;;;-2.48;89.85
39105;BME280;46464;51.154;13.812;2023-01-28T09:59:45;100408.78;;;-2.45;91.13
39105;BME280;46464;51.154;13.812;2023-01-28T10:04:58;100404.59;;;-2.35;91.60
39105;BME280;46464;51.154;13.812;2023-01-28T10:07:32;100411.63;;;-2.35;92.56
39105;BME280;46464;51.154;13.812;2023-01-28T10:15:19;100411.66;;;-2.32;91.01
39105;BME280;46464;51.154;13.812;2023-01-28T10:17:51;100412.47;;;-2.36;89.87
39105;BME280;46464;51.154;13.812;2023-01-28T10:20:44;100414.13;;;-2.41;89.27
39105;BME280;46464;51.154;13.812;2023-01-28T10:23:26;100417.63;;;-2.41;89.10
39105;BME280;46464;51.154;13.812;2023-01-28T10:25:56;100427.38;;;-2.37;91.19
39105;BME280;46464;51.154;13.812;2023-01-28T10:28:28;100434.47;;;-2.34;90.11
39105;BME280;46464;51.154;13.812;2023-01-28T10:30:54;100431.03;;;-2.30;90.65
39105;BME280;46464;51.154;13.812;2023-01-28T10:33:22;100430.03;;;-2.35;89.37
39105;BME280;46464;51.154;13.812;2023-01-28T10:35:49;100435.22;;;-2.38;90.31
39105;BME280;46464;51.154;13.812;2023-01-28T10:38:18;100443.91;;;-2.42;87.39
39105;BME280;46464;51.154;13.812;2023-01-28T10:40:45;100432.50;;;-2.43;88.63
39105;BME280;46464;51.154;13.812;2023-01-28T10:43:24;100434.41;;;-2.36;89.01
39105;BME280;46464;51.154;13.812;2023-01-28T10:46:00;100439.75;;;-2.33;89.34
39105;BME280;46464;51.154;13.812;2023-01-28T10:48:29;100442.34;;;-2.34;88.38
39105;BME280;46464;51.154;13.812;2023-01-28T10:50:58;100442.13;;;-2.44;88.36
39105;BME280;46464;51.154;13.812;2023-01-28T10:56:03;100442.41;;;-2.31;88.86
39105;BME280;46464;51.154;13.812;2023-01-28T10:58:33;100446.72;;;-2.35;89.81
39105;BME280;46464;51.154;13.812;2023-01-28T11:01:00;100446.78;;;-2.32;89.29
39105;BME280;46464;51.154;13.812;2023-01-28T11:03:28;100441.44;;;-2.35;90.28
39105;BME280;46464;51.154;13.812;2023-01-28T11:05:56;100444.66;;;-2.48;89.51
39105;BME280;46464;51.154;13.812;2023-01-28T11:08:24;100434.38;;;-2.37;89.24
39105;BME280;46464;51.154;13.812;2023-01-28T11:10:51;100444.19;;;-2.30;89.56
39105;BME280;46464;51.154;13.812;2023-01-28T11:13:19;100430.03;;;-2.35;89.15
39105;BME280;46464;51.154;13.812;2023-01-28T11:15:47;100436.22;;;-2.33;90.47
39105;BME280;46464;51.154;13.812;2023-01-28T11:18:24;100430.28;;;-2.24;88.81
39105;BME280;46464;51.154;13.812;2023-01-28T11:20:56;100432.69;;;-2.35;89.16
39105;BME280;46464;51.154;13.812;2023-01-28T11:23:25;100429.09;;;-2.37;88.89
39105;BME280;46464;51.154;13.812;2023-01-28T11:26:05;100432.69;;;-2.34;89.29
39105;BME280;46464;51.154;13.812;2023-01-28T11:28:32;100434.41;;;-2.36;89.77
39105;BME280;46464;51.154;13.812;2023-01-28T11:30:59;100436.31;;;-2.29;89.24
39105;BME280;46464;51.154;13.812;2023-01-28T11:33:36;100428.41;;;-2.30;89.63
39105;BME280;46464;51.154;13.812;2023-01-28T11:38:29;100426.84;;;-2.20;91.39
39105;BME280;46464;51.154;13.812;2023-01-28T11:40:57;100418.16;;;-2.16;91.44
39105;BME280;46464;51.154;13.812;2023-01-28T11:43:25;100419.19;;;-2.09;90.43
39105;BME280;46464;51.154;13.812;2023-01-28T11:45:57;100414.56;;;-2.20;89.79
39105;BME280;46464;51.154;13.812;2023-01-28T11:51:23;100418.06;;;-2.21;89.40
39105;BME280;46464;51.154;13.812;2023-01-28T11:54:00;100417.03;;;-2.28;89.12
39105;BME280;46464;51.154;13.812;2023-01-28T11:56:37;100417.91;;;-2.27;88.85
39105;BME280;46464;51.154;13.812;2023-01-28T12:04:24;100411.03;;;-2.22;90.11
39105;BME280;46464;51.154;13.812;2023-01-28T12:17:34;100402.50;;;-2.10;90.02
39105;BME280;46464;51.154;13.812;2023-01-28T12:25:27;100401.41;;;-2.20;90.35
39105;BME280;46464;51.154;13.812;2023-01-28T12:28:07;100397.94;;;-2.19;90.96
39105;BME280;46464;51.154;13.812;2023-01-28T12:30:41;100401.59;;;-2.12;89.32
39105;BME280;46464;51.154;13.812;2023-01-28T12:33:13;100397.19;;;-2.13;89.06
39105;BME280;46464;51.154;13.812;2023-01-28T12:35:49;100392.78;;;-2.13;88.67
39105;BME280;46464;51.154;13.812;2023-01-28T12:41:33;100384.25;;;-2.01;87.11
39105;BME280;46464;51.154;13.812;2023-01-28T12:46:28;100384.31;;;-1.98;86.67
39105;BME280;46464;51.154;13.812;2023-01-28T12:49:17;100385.97;;;-2.03;86.90
39105;BME280;46464;51.154;13.812;2023-01-28T12:52:08;100384.13;;;-2.07;86.99
39105;BME280;46464;51.154;13.812;2023-01-28T12:54:40;100391.22;;;-2.03;87.01
39105;BME280;46464;51.154;13.812;2023-01-28T12:57:13;100385.09;;;-2.03;87.46
39105;BME280;46464;51.154;13.812;2023-01-28T12:59:44;100390.44;;;-1.99;85.98
39105;BME280;46464;51.154;13.812;2023-01-28T13:07:06;100391.22;;;-2.04;88.30
39105;BME280;46464;51.154;13.812;2023-01-28T13:09:34;100393.00;;;-2.02;87.40
39105;BME280;46464;51.154;13.812;2023-01-28T13:12:02;100386.03;;;-2.00;87.64
39105;BME280;46464;51.154;13.812;2023-01-28T13:14:30;100379.03;;;-1.98;86.81
39105;BME280;46464;51.154;13.812;2023-01-28T13:17:10;100384.25;;;-2.01;87.54
39105;BME280;46464;51.154;13.812;2023-01-28T13:19:38;100397.31;;;-2.07;88.41
39105;BME280;46464;51.154;13.812;2023-01-28T13:22:12;100392.78;;;-2.13;89.08
39105;BME280;46464;51.154;13.812;2023-01-28T13:24:39;100392.81;;;-2.11;89.33
39105;BME280;46464;51.154;13.812;2023-01-28T13:27:10;100388.47;;;-2.09;89.44
39105;BME280;46464;51.154;13.812;2023-01-28T13:29:37;100395.50;;;-2.09;89.57
39105;BME280;46464;51.154;13.812;2023-01-28T13:32:28;100400.78;;;-2.08;88.62
39105;BME280;46464;51.154;13.812;2023-01-28T13:35:52;100394.63;;;-2.08;88.89
39105;BME280;46464;51.154;13.812;2023-01-28T13:37:46;100398.19;;;-2.06;88.83
39105;BME280;46464;51.154;13.812;2023-01-28T13:42:40;100402.63;;;-2.04;89.24
39105;BME280;46464;51.154;13.812;2023-01-28T13:47:43;100395.75;;;-1.97;87.91
39105;BME280;46464;51.154;13.812;2023-01-28T13:50:11;100405.22;;;-2.05;88.21
39105;BME280;46464;51.154;13.812;2023-01-28T13:52:50;100408.59;;;-2.11;87.43